Tiempo atmosférico en la estación meteorológica de Amorebieta--Etxano, Bizkaia (100 m.)

Fecha
DESCASC
Temp. máxima en grados centígrados (hora)
DESCASC
Temp. mínima en grados centígrados (hora)
DESCASC
Temp. media en grados centígrados
DESCASC
Racha de viento máxima en m/sg (hora)
DESCASC
Velocidad máxima media en intervalos de 10 minutos(hora)
DESCASC
Precipitaciones diarias en mm
DESCASC
Precipitaciones de 00:00 a 06:00 en mm
DESCASC
Precipitaciones de 06:00 a 12:00 en mm
DESCASC
Precipitaciones de 12:00 a 18:00 en mm
DESCASC
Precipitaciones de 18:00 a 24:00 en mm
DESCASC
23-11-2017 21.6 (12:30) 15.3 (22:30) 18.5 15 (02:10) 6.11 (07:30) 0 0 0 0 0
22-11-2017 21.9 (15:00) 3.5 (02:20) 12.7 10.83 (19:20) 4.72 (19:20) 0 0 0 0 0
21-11-2017 19.4 (15:10) 1.5 (06:50) 10.4 4.17 (23:59) 2.5 (18:30) 0 0 0 0 0
20-11-2017 19.1 (15:20) 1.5 (05:10) 10.3 3.33 (01:20) 2.22 (01:10) 0 0 0 0 0
19-11-2017 15.2 (15:50) 3.1 (00:00) 9.1 3.33 (05:00) 1.67 (23:00) 0 0 0 0 0
18-11-2017 14.8 (13:50) 4.4 (00:00) 9.6 5.28 (15:40) 3.33 (16:50) 0 0 0 0 0
17-11-2017 16 (15:00) 1.8 (00:00) 8.9 4.44 (17:00) 3.06 (15:10) 0 0 0 0 0
16-11-2017 16.7 (15:20) 0.9 (00:00) 8.8 3.61 (14:00) 2.5 (14:50) 0 0 0 0 0
15-11-2017 14 (15:30) 0 (00:00) 7 2.5 (14:50) 1.67 (18:10) 0 0 0 0 0
14-11-2017 11.4 (14:40) 3.1 (00:00) 7.2 6.39 (13:30) 3.89 (16:20) 0 0 0 0 0
13-11-2017 11.9 (15:40) 5.9 (00:00) 8.9 9.17 (14:30) 5 (13:50) 2.6 0.4 2.2 0 0
12-11-2017 14.8 (13:20) 10.4 (00:00) 12.6 10.28 (18:50) 5.28 (16:20) 6 0 0 1.2 4.8
11-11-2017 13.5 (16:40) 11.1 (00:00) 12.3 7.5 (13:40) 3.61 (13:40) 1.6 1 0.6 0 0
10-11-2017 13.4 (14:20) 6.5 (00:00) 9.9 8.61 (15:30) 5.28 (15:30) 9 1.2 1.6 4.6 1.6
09-11-2017 13 (12:50) 5.4 (00:00) 9.2 9.44 (13:10) 5.28 (13:10) 5.2 3 2 0.2 0
08-11-2017 9.2 (02:00) 5.6 (00:00) 7.4 9.44 (06:30) 4.44 (13:40) 37.2 9.6 13 12 2.6
07-11-2017 15 (15:30) 2.5 (00:00) 8.8 6.11 (16:40) 3.61 (16:20) 6.2 0 0 0 6.2
06-11-2017 13.5 (16:40) 7.7 (00:00) 10.6 9.72 (14:30) 5.83 (14:30) 7.8 3.2 2.6 1.2 0.8
05-11-2017 13 (00:20) 9.1 (00:00) 11.1 12.78 (14:10) 6.67 (14:10) 21.6 4 3.4 7.2 7
04-11-2017 16.2 (14:40) 7.7 (00:00) 12 7.5 (15:20) 5.28 (15:10) 18.2 0 0 8.6 9.6
03-11-2017 22.8 (15:50) 9.7 (00:00) 16.2 10.28 (13:10) 5.56 (13:10) 0.2 0 0.2 0 0
02-11-2017 23.7 (14:00) 16.3 (08:00) 20 10.83 (07:10) 5.28 (05:30) 0 0 0 0 0
01-11-2017 21.2 (14:50) 9 (00:00) 15.1 11.39 (02:00) 5.83 (01:40) 0 0 0 0 0
31-10-2017 17.3 (15:30) 6.5 (00:00) 11.9 10 (23:59) 3.89 (23:59) 0 0 0 0 0
30-10-2017 14.9 (11:20) 8.1 (00:00) 11.5 8.89 (12:10) 5.56 (12:20) 5.4 2.4 2.8 0.2 0
29-10-2017 15.6 (13:50) 7.2 (00:00) 11.4 5 (14:30) 3.61 (14:30) 0.6 0 0 0 0.6
28-10-2017 17.5 (15:40) 9.2 (00:00) 13.3 6.39 (17:10) 3.33 (16:50) 0.6 0.6 0 0 0
27-10-2017 19 (15:20) 8.3 (00:00) 13.7 6.39 (16:50) 3.89 (16:40) 0 0 0 0 0
26-10-2017 23.4 (16:00) 10.7 (00:00) 17 7.22 (15:00) 4.72 (15:00) 0 0 0 0 0

Gráficas

Temp. máximas Temp. mínimas Temp. medias Precipitaciones Rachas de viento máximas Velocidades máximas media en intervalos de 10 minutos

Datos horarios

Fecha y hora oficial Temperatura (ºC) Velocidad del viento (km/h) Dirección del viento Racha (km/h) Dirección de racha Precipitación (mm) Presión (hPa) Tendencia (hPa) Humedad (%)
2017-11-24 23:00:00 12.7 10 Noroeste 23 Oeste 0 -- -- 94
2017-11-24 22:00:00 13.1 11 Oeste 22 Oeste 0 -- -- 92
2017-11-24 21:00:00 14 9 Noroeste 16 Noroeste 0 -- -- 94
2017-11-24 20:00:00 14.3 11 Noroeste 16 Noroeste 0 -- -- 93
2017-11-24 19:00:00 14.5 7 Norte 14 Noroeste 0 -- -- 93
2017-11-24 18:00:00 14.9 6 Noroeste 13 Noroeste 0 -- -- 90
2017-11-24 17:00:00 15.9 9 Norte 16 Norte 0 -- -- 86
2017-11-24 16:00:00 16.4 9 Oeste 12 Oeste 0 -- -- 84
2017-11-24 15:00:00 16.2 5 Norte 13 Noroeste 0 -- -- 82
2017-11-24 14:00:00 16.1 11 Noroeste 17 Noroeste 0 -- -- 80
2017-11-24 13:00:00 16.3 0 Calma 5 Norte 0 -- -- 80
2017-11-24 12:00:00 15.9 3 Noroeste 7 Oeste 0 -- -- 82
2017-11-24 11:00:00 14.5 2 Noroeste 12 Nordeste 0 -- -- 90
2017-11-24 10:00:00 13.6 3 Oeste 16 Este 0.4 -- -- 92
2017-11-24 09:00:00 15 6 Sudeste 23 Sur 0.2 -- -- 78
2017-11-24 08:00:00 15.8 8 Sur 22 Sur 0 -- -- 66
2017-11-24 07:00:00 14.5 5 Sur 19 Este 0 -- -- 74
2017-11-24 06:00:00 15 7 Sudeste 17 Sudeste 0.2 -- -- 74
2017-11-24 05:00:00 18.1 8 Este 27 Sudoeste 0 -- -- 44
2017-11-24 04:00:00 19.5 12 Sur 35 Sur 0 -- -- 37
2017-11-24 03:00:00 20.1 11 Sudoeste 28 Sur 0 -- -- 34
2017-11-24 02:00:00 20.1 14 Sudoeste 33 Sur 0 -- -- 34
2017-11-24 01:00:00 18.2 6 Sur 27 Sur 0 -- -- 39
2017-11-24 00:00:00 16.1 3 Sur 17 Este 0 -- -- 59
2017-11-23 23:00:00 17 8 Sudeste 21 Este 0 -- -- 57
2017-11-23 22:00:00 16.4 4 Sur 24 Sudeste 0 -- -- 63
2017-11-23 21:00:00 18.1 6 Sudeste 24 Sudeste 0 -- -- 57
2017-11-23 20:00:00 18.3 4 Sudoeste 24 Este 0 -- -- 57
2017-11-23 19:00:00 19.7 4 Sur 29 Nordeste 0 -- -- 55
2017-11-23 18:00:00 20.4 9 Sur 31 Este 0 -- -- 51
2017-11-23 17:00:00 20.8 11 Sudeste 31 Sudoeste 0 -- -- 48
2017-11-23 16:00:00 21 12 Sudoeste 39 Sudoeste 0 -- -- 47
2017-11-23 15:00:00 21.3 12 Sudoeste 33 Sur 0 -- -- 47
2017-11-23 14:00:00 21.2 15 Sudoeste 35 Sur 0 -- -- 48
2017-11-23 13:00:00 21 17 Sudoeste 40 Sur 0 -- -- 47
2017-11-23 12:00:00 21 9 Sudeste 33 Sudeste 0 -- -- 47
2017-11-23 11:00:00 19.4 19 Sudoeste 34 Oeste 0 -- -- 48
2017-11-23 10:00:00 18.9 11 Sudeste 43 Sur 0 -- -- 46
2017-11-23 09:00:00 18.4 8 Sudeste 45 Sudoeste 0 -- -- 47
2017-11-23 08:00:00 18.4 19 Sur 42 Sur 0 -- -- 47
2017-11-23 07:00:00 17.1 9 Sur 33 Sudoeste 0 -- -- 54
2017-11-23 06:00:00 18.7 6 Sudeste 31 Sur 0 -- -- 34
2017-11-23 05:00:00 18.5 11 Sur 34 Sur 0 -- -- 36
2017-11-23 04:00:00 19.6 13 Sudeste 43 Sur 0 -- -- 34
2017-11-23 03:00:00 19.8 20 Sudoeste 54 Oeste 0 -- -- 34
2017-11-23 02:00:00 18.9 17 Sudoeste 37 Oeste 0 -- -- 34
2017-11-23 01:00:00 16.6 5 Sur 33 Sudeste 0 -- -- 40
2017-11-23 00:00:00 17.7 12 Sudeste 30 Sudeste 0 -- -- 35
2017-11-22 23:00:00 17.7 14 Sudeste 28 Este 0 -- -- 35
2017-11-22 22:00:00 18.4 12 Sudeste 31 Sudeste 0 -- -- 33
2017-11-22 21:00:00 18.2 9 Este 27 Este 0 -- -- 34
2017-11-22 20:00:00 17.1 8 Sur 39 Sudeste 0 -- -- 39
2017-11-22 19:00:00 18.9 15 Este 34 Este 0 -- -- 33
2017-11-22 18:00:00 16.5 6 Sudeste 21 Sur 0 -- -- 41
2017-11-22 17:00:00 19.6 8 Sudeste 24 Sur 0 -- -- 35
2017-11-22 16:00:00 21.8 12 Sudeste 30 Sur 0 -- -- 30
2017-11-22 15:00:00 21.9 10 Sur 24 Este 0 -- -- 35
2017-11-22 14:00:00 20.4 12 Este 27 Este 0 -- -- 34
2017-11-22 13:00:00 19.8 6 Sudeste 16 Este 0 -- -- 37
2017-11-22 12:00:00 18.2 4 Sur 21 Este 0 -- -- 40
2017-11-22 11:00:00 15.5 3 Sudeste 12 Este 0 -- -- 49
2017-11-22 10:00:00 12 5 Sur 15 Este 0 -- -- 60
2017-11-22 09:00:00 10.2 5 Sur 19 Este 0 -- -- 58
2017-11-22 08:00:00 10.8 4 Sur 18 Este 0 -- -- 53
2017-11-22 07:00:00 10.4 5 Sudeste 20 Este 0 -- -- 55
2017-11-22 06:00:00 11.4 7 Sudeste 24 Sudeste 0 -- -- 54
2017-11-22 05:00:00 11.8 6 Sudeste 24 Sudeste 0 -- -- 52
2017-11-22 04:00:00 8.7 5 Sur 19 Este 0 -- -- 61
2017-11-22 03:00:00 3.8 4 Este 12 Sudeste 0 -- -- 91
2017-11-22 02:00:00 3.8 3 Norte 8 Norte 0 -- -- 93
2017-11-22 01:00:00 4.3 3 Sur 9 Sudeste 0 -- -- 90
2017-11-22 00:00:00 4.5 8 Sudeste 15 Sur 0 -- -- 94
2017-11-21 23:00:00 4.1 3 Oeste 10 Sudoeste 0 -- -- 96
2017-11-21 22:00:00 4.8 2 Sudeste 10 Sur 0 -- -- 93
2017-11-21 21:00:00 5.9 2 Noroeste 8 Sudeste 0 -- -- 92
2017-11-21 20:00:00 7.6 2 Sudeste 10 Sudeste 0 -- -- 86
2017-11-21 19:00:00 9.4 7 Sudeste 14 Sudeste 0 -- -- 81
2017-11-21 18:00:00 11.3 4 Sudeste 10 Este 0 -- -- 74
2017-11-21 17:00:00 15.4 4 Sudeste 8 Este 0 -- -- 57
2017-11-21 16:00:00 18.5 2 Sur 6 Sur 0 -- -- 59
2017-11-21 15:00:00 19.2 5 Sur 8 Sur 0 -- -- 51
2017-11-21 14:00:00 18.7 3 Sudoeste 6 Sudoeste 0 -- -- 50
2017-11-21 13:00:00 15.6 0 Calma 5 Sur 0 -- -- 59
2017-11-21 12:00:00 12.2 2 Sudoeste 6 Sur 0 -- -- 72
2017-11-21 11:00:00 7.6 4 Sudeste 8 Sudeste 0 -- -- 93
2017-11-21 10:00:00 3.7 2 Sudeste 5 Este 0 -- -- 100
2017-11-21 09:00:00 1.8 2 Este 4 Este 0 -- -- 100
2017-11-21 08:00:00 1.6 0 Calma 6 Sudeste 0 -- -- 100
2017-11-21 07:00:00 1.7 3 Este 8 Este 0 -- -- 100
2017-11-21 06:00:00 2.2 3 Sudeste 5 Sudeste 0 -- -- 99
2017-11-21 05:00:00 2.3 0 Calma 4 Sudeste 0 -- -- 99
2017-11-21 04:00:00 3.1 3 Sudeste 7 Sudeste 0 -- -- 99
2017-11-21 03:00:00 3.2 4 Sudeste 5 Sudeste 0 -- -- 99
2017-11-21 02:00:00 3.8 0 Calma 10 Sudeste 0 -- -- 98
2017-11-21 01:00:00 4.6 5 Sudeste 10 Sudeste 0 -- -- 98
2017-11-21 00:00:00 4.6 5 Sudeste 9 Sudeste 0 -- -- 98
2017-11-20 23:00:00 5.4 5 Sudeste 6 Sudeste 0 -- -- 97
2017-11-20 22:00:00 6.1 3 Este 5 Sudeste 0 -- -- 96
2017-11-20 21:00:00 7.4 3 Sudeste 10 Sudeste 0 -- -- 93
2017-11-20 20:00:00 8.6 4 Sudeste 10 Sudeste 0 -- -- 91
2017-11-20 19:00:00 9.8 6 Sudeste 9 Sudeste 0 -- -- 88
2017-11-20 18:00:00 11.4 3 Sudeste 8 Este 0 -- -- 83
2017-11-20 17:00:00 15.1 3 Sudeste 7 Sudeste 0 -- -- 70
2017-11-20 16:00:00 18.2 3 Sur 7 Sur 0 -- -- 68
2017-11-20 15:00:00 18.8 4 Sur 8 Oeste 0 -- -- 50
2017-11-20 14:00:00 17.5 5 Sur 8 Sur 0 -- -- 55
2017-11-20 13:00:00 15.3 4 Sur 8 Sur 0 -- -- 63
2017-11-20 12:00:00 11.6 3 Sur 9 Sur 0 -- -- 73
2017-11-20 11:00:00 7.5 5 Sur 10 Sudeste 0 -- -- 87
2017-11-20 10:00:00 3.9 5 Sudeste 10 Sudeste 0 -- -- 99
2017-11-20 09:00:00 1.8 2 Sudeste 10 Sudeste 0 -- -- 99
2017-11-20 08:00:00 1.8 5 Sudeste 12 Sudeste 0 -- -- 100
2017-11-20 07:00:00 1.8 6 Sudeste 11 Sudeste 0 -- -- 100
2017-11-20 06:00:00 1.9 5 Sudeste 9 Sudeste 0 -- -- 100
2017-11-20 05:00:00 1.7 2 Sudeste 5 Este 0 -- -- 99
2017-11-20 04:00:00 2.1 0 Calma 9 Sur 0 -- -- 99
2017-11-20 03:00:00 2.3 5 Sudeste 7 Sudeste 0 -- -- 99
2017-11-20 02:00:00 2.6 0 Calma 12 Sudeste 0 -- -- 99
2017-11-20 01:00:00 2.9 6 Sudeste 10 Sudeste 0 -- -- 99
2017-11-20 00:00:00 3.3 2 Sudeste 8 Este 0 -- -- 98
2017-11-19 23:00:00 4 6 Este 8 Este 0 -- -- 98
2017-11-19 22:00:00 4.4 4 Sudeste 8 Este 0 -- -- 98
2017-11-19 21:00:00 5 5 Este 7 Este 0 -- -- 96
2017-11-19 20:00:00 6 4 Sudeste 8 Sudeste 0 -- -- 95
2017-11-19 19:00:00 7.2 4 Sudeste 9 Este 0 -- -- 91
2017-11-19 18:00:00 8.8 0 Calma 7 Este 0 -- -- 85
2017-11-19 17:00:00 12.4 0 Calma 6 Sudoeste 0 -- -- 71
2017-11-19 16:00:00 14.9 3 Sudoeste 8 Sudoeste 0 -- -- 65
2017-11-19 15:00:00 14.7 5 Sudoeste 8 Sudoeste 0 -- -- 63
2017-11-19 14:00:00 13.4 4 Sudoeste 7 Sudoeste 0 -- -- 64
2017-11-19 13:00:00 9.7 3 Sudoeste 7 Nordeste 0 -- -- 90
2017-11-19 12:00:00 5.9 0 Calma 5 Oeste 0 -- -- 100
2017-11-19 11:00:00 4.4 3 Sur 5 Sudeste 0 -- -- 100
2017-11-19 10:00:00 3.7 2 Sudeste 7 Sudeste 0 -- -- 100
2017-11-19 09:00:00 3.2 3 Sur 8 Sudeste 0 -- -- 100
2017-11-19 08:00:00 3.1 4 Sudeste 8 Sudeste 0 -- -- 100
2017-11-19 07:00:00 3.5 0 Calma 6 Este 0 -- -- 100
2017-11-19 06:00:00 3.6 3 Sudeste 9 Sudeste 0 -- -- 100
2017-11-19 05:00:00 4 6 Sudeste 12 Sudeste 0 -- -- 100
2017-11-19 04:00:00 4.4 4 Sudeste 8 Sudeste 0 -- -- 100
2017-11-19 03:00:00 4.5 0 Calma 6 Sudeste 0 -- -- 100
2017-11-19 02:00:00 4.8 4 Sur 6 Sur 0 -- -- 100
2017-11-19 01:00:00 4.7 2 Nordeste 5 Sudeste 0 -- -- 100
2017-11-19 00:00:00 4.4 3 Sudeste 6 Sudeste 0 -- -- 99
2017-11-18 23:00:00 5.1 3 Este 5 Este 0 -- -- 98
2017-11-18 22:00:00 5.8 0 Calma 5 Sudeste 0 -- -- 97
2017-11-18 21:00:00 6.6 3 Sudeste 8 Este 0 -- -- 96
2017-11-18 20:00:00 7.9 3 Noroeste 6 Noroeste 0 -- -- 95
2017-11-18 19:00:00 9.2 2 Norte 8 Oeste 0 -- -- 92
2017-11-18 18:00:00 10.9 2 Sur 18 Nordeste 0 -- -- 88
2017-11-18 17:00:00 12.6 11 Norte 18 Norte 0 -- -- 80
2017-11-18 16:00:00 13 8 Norte 19 Norte 0 -- -- 79
2017-11-18 15:00:00 13.3 7 Norte 18 Noroeste 0 -- -- 79
2017-11-18 14:00:00 14.7 9 Noroeste 15 Oeste 0 -- -- 76
2017-11-18 13:00:00 12.7 6 Noroeste 11 Noroeste 0 -- -- 87
2017-11-18 12:00:00 10.8 3 Sudeste 4 Sudeste 0 -- -- 93
2017-11-18 11:00:00 9.4 0 Calma 9 Noroeste 0 -- -- 100
2017-11-18 10:00:00 8.4 2 Nordeste 6 Norte 0 -- -- 100
2017-11-18 09:00:00 7.9 0 Calma 3 Nordeste 0 -- -- 100
2017-11-18 08:00:00 7.5 0 Calma 3 Este 0 -- -- 100
2017-11-18 07:00:00 7.3 0 Calma 5 Norte 0 -- -- 100
2017-11-18 06:00:00 7.2 0 Calma 3 Nordeste 0 -- -- 100
2017-11-18 05:00:00 6.8 0 Calma 5 Sudeste 0 -- -- 100
2017-11-18 04:00:00 6.8 0 Calma 5 Sudeste 0 -- -- 100
2017-11-18 03:00:00 6.3 3 Sudeste 6 Este 0 -- -- 100
2017-11-18 02:00:00 6.4 3 Sudeste 8 Este 0 -- -- 99
2017-11-18 01:00:00 6.4 0 Calma 4 Sudeste 0 -- -- 99
2017-11-18 00:00:00 6.2 2 Sudeste 4 Sudeste 0 -- -- 98
2017-11-17 23:00:00 7 4 Sudeste 6 Sudeste 0 -- -- 99
2017-11-17 22:00:00 7.8 3 Sudeste 6 Este 0 -- -- 97
2017-11-17 21:00:00 9 0 Calma 4 Este 0 -- -- 96
2017-11-17 20:00:00 9.6 0 Calma 4 Noroeste 0 -- -- 95
2017-11-17 19:00:00 10.9 0 Calma 10 Noroeste 0 -- -- 92
2017-11-17 18:00:00 12.1 4 Noroeste 9 Noroeste 0 -- -- 87
2017-11-17 17:00:00 13.3 10 Norte 16 Norte 0 -- -- 80
2017-11-17 16:00:00 15.2 8 Norte 14 Oeste 0 -- -- 71
2017-11-17 15:00:00 16 8 Oeste 13 Sudoeste 0 -- -- 71
2017-11-17 14:00:00 15.6 8 Oeste 13 Oeste 0 -- -- 74
2017-11-17 13:00:00 14.2 8 Noroeste 12 Noroeste 0 -- -- 80
2017-11-17 12:00:00 10.8 0 Calma 6 Sur 0 -- -- 83
2017-11-17 11:00:00 7.8 2 Sudeste 7 Sudeste 0 -- -- 97
2017-11-17 10:00:00 4.8 0 Calma 4 Este 0 -- -- 100
2017-11-17 09:00:00 3.3 0 Calma 3 Sudeste 0 -- -- 100
2017-11-17 08:00:00 2.2 0 Calma 3 Este 0 -- -- 100
2017-11-17 07:00:00 1.8 0 Calma 4 Sur 0 -- -- 100
2017-11-17 06:00:00 2.4 3 Sudeste 6 Sudeste 0 -- -- 100
2017-11-17 05:00:00 2.1 0 Calma 4 Este 0 -- -- 99
2017-11-17 04:00:00 2.8 2 Sudeste 4 Sudeste 0 -- -- 99
2017-11-17 03:00:00 3.3 0 Calma 5 Sudeste 0 -- -- 99
2017-11-17 02:00:00 3.3 3 Sudeste 4 Este 0 -- -- 99
2017-11-17 01:00:00 4 0 Calma 4 Sudeste 0 -- -- 98
2017-11-17 00:00:00 4.3 0 Calma 3 Este 0 -- -- 98
2017-11-16 23:00:00 5 0 Calma 5 Sudeste 0 -- -- 97
2017-11-16 22:00:00 5.6 0 Calma 7 Sudeste 0 -- -- 96
2017-11-16 21:00:00 6.4 0 Calma 6 Sudeste 0 -- -- 95
2017-11-16 20:00:00 7.6 3 Este 6 Sudeste 0 -- -- 93
2017-11-16 19:00:00 8.8 4 Este 7 Este 0 -- -- 90
2017-11-16 18:00:00 11.2 0 Calma 4 Sudeste 0 -- -- 83
2017-11-16 17:00:00 14.1 0 Calma 10 Oeste 0 -- -- 74
2017-11-16 16:00:00 16.5 6 Oeste 12 Oeste 0 -- -- 58
2017-11-16 15:00:00 16.5 8 Oeste 13 Oeste 0 -- -- 55
2017-11-16 14:00:00 16 6 Noroeste 13 Noroeste 0 -- -- 58
2017-11-16 13:00:00 13.9 2 Noroeste 6 Noroeste 0 -- -- 61
2017-11-16 12:00:00 10.3 0 Calma 3 Sudoeste 0 -- -- 78
2017-11-16 11:00:00 6.2 0 Calma 6 Sudeste 0 -- -- 99
2017-11-16 10:00:00 3.5 3 Sur 5 Este 0 -- -- 100
2017-11-16 09:00:00 1.3 2 Sudeste 5 Sudeste 0 -- -- 100
2017-11-16 08:00:00 1.1 2 Sudeste 4 Sudeste 0 -- -- 99
2017-11-16 07:00:00 1.1 0 Calma 4 Este 0 -- -- 99
2017-11-16 06:00:00 1.8 2 Sudeste 9 Sudeste 0 -- -- 99
2017-11-16 05:00:00 1.6 3 Sudeste 8 Sudeste 0 -- -- 99
2017-11-16 04:00:00 2 3 Sudeste 8 Sudeste 0 -- -- 98
2017-11-16 03:00:00 2.1 3 Sudeste 7 Sudeste 0 -- -- 99
2017-11-16 02:00:00 2.4 3 Sudeste 8 Sudeste 0 -- -- 98
2017-11-16 01:00:00 2.5 4 Sudeste 5 Sudeste 0 -- -- 98
2017-11-16 00:00:00 2.7 0 Calma 6 Sudeste 0 -- -- 97
2017-11-15 23:00:00 3.1 2 Sudeste 9 Sudeste 0 -- -- 97
2017-11-15 22:00:00 3.7 4 Sudeste 9 Este 0 -- -- 97
2017-11-15 21:00:00 4.3 2 Sudeste 8 Sudeste 0 -- -- 94
2017-11-15 20:00:00 5.2 3 Sudeste 8 Este 0 -- -- 91
2017-11-15 19:00:00 6.2 0 Calma 9 Sudeste 0 -- -- 88
2017-11-15 18:00:00 8 4 Este 7 Este 0 -- -- 78
2017-11-15 17:00:00 11.7 3 Sudeste 6 Sudoeste 0 -- -- 64
2017-11-15 16:00:00 13.7 5 Sudoeste 8 Sudoeste 0 -- -- 60
2017-11-15 15:00:00 13.5 5 Sur 9 Sur 0 -- -- 55
2017-11-15 14:00:00 12.2 5 Sudoeste 8 Sur 0 -- -- 59
2017-11-15 13:00:00 10 3 Noroeste 5 Noroeste 0 -- -- 71
2017-11-15 12:00:00 7.8 0 Calma 5 Oeste 0 -- -- 81
2017-11-15 11:00:00 4.7 0 Calma 6 Sudeste 0 -- -- 99
2017-11-15 10:00:00 2.1 2 Sudoeste 5 Sudeste 0 -- -- 100
2017-11-15 09:00:00 0.5 3 Sur 4 Sur 0 -- -- 100
2017-11-15 08:00:00 0.2 2 Sudeste 3 Sudeste 0 -- -- 100
2017-11-15 07:00:00 0.5 0 Calma 5 Sudeste 0 -- -- 100
2017-11-15 06:00:00 1 0 Calma 6 Sudeste 0 -- -- 100
2017-11-15 05:00:00 1.4 2 Sudeste 5 Este 0 -- -- 100
2017-11-15 04:00:00 1.4 0 Calma 3 Nordeste 0 -- -- 100
2017-11-15 03:00:00 1.7 3 Nordeste 5 Este 0 -- -- 99
2017-11-15 02:00:00 1.9 0 Calma 5 Este 0 -- -- 99
2017-11-15 01:00:00 2.5 2 Este 4 Nordeste 0 -- -- 98
2017-11-15 00:00:00 3.1 0 Calma 4 Sudeste 0 -- -- 97
2017-11-14 23:00:00 4 3 Sudeste 5 Sudeste 0 -- -- 97
2017-11-14 22:00:00 4 2 Sudeste 5 Sudeste 0 -- -- 96
2017-11-14 21:00:00 4.2 3 Sur 5 Noroeste 0 -- -- 95
2017-11-14 20:00:00 4.5 3 Este 6 Sudeste 0 -- -- 93
2017-11-14 19:00:00 5.6 3 Este 7 Este 0 -- -- 87
2017-11-14 18:00:00 7.4 4 Sudeste 15 Nordeste 0 -- -- 81
2017-11-14 17:00:00 9.8 8 Nordeste 22 Nordeste 0 -- -- 66
2017-11-14 16:00:00 10.8 10 Nordeste 18 Nordeste 0 -- -- 60
2017-11-14 15:00:00 11.1 9 Nordeste 20 Nordeste 0 -- -- 59
2017-11-14 14:00:00 11.1 11 Nordeste 23 Nordeste 0 -- -- 51
2017-11-14 13:00:00 10.5 13 Norte 21 Norte 0 -- -- 57
2017-11-14 12:00:00 10.7 6 Sudeste 22 Sur 0 -- -- 63
2017-11-14 11:00:00 7.7 2 Sudoeste 5 Sur 0 -- -- 88
2017-11-14 10:00:00 6 2 Sur 4 Sur 0 -- -- 97
2017-11-14 09:00:00 4.9 0 Calma 9 Sudeste 0 -- -- 97
2017-11-14 08:00:00 5.6 3 Sudeste 7 Sudeste 0 -- -- 97
2017-11-14 07:00:00 5.9 3 Sudeste 4 Sudeste 0 -- -- 97
2017-11-14 06:00:00 6.3 0 Calma 3 Norte 0 -- -- 97
2017-11-14 05:00:00 6.2 2 Sur 6 Este 0 -- -- 98
2017-11-14 04:00:00 6 3 Sudeste 5 Este 0 -- -- 98
2017-11-14 03:00:00 5.9 0 Calma 6 Nordeste 0 -- -- 97
2017-11-14 02:00:00 5.6 2 Sudeste 5 Oeste 0 -- -- 97
2017-11-14 01:00:00 5.5 0 Calma 3 Norte 0 -- -- 94
2017-11-14 00:00:00 5.9 0 Calma 5 Este 0 -- -- 93
2017-11-13 23:00:00 6.6 2 Sudeste 4 Nordeste 0 -- -- 91
2017-11-13 22:00:00 6.7 2 Sudeste 6 Este 0 -- -- 91
2017-11-13 21:00:00 7.1 3 Este 6 Este 0 -- -- 88
2017-11-13 20:00:00 7.8 4 Este 7 Nordeste 0 -- -- 84
2017-11-13 19:00:00 8.8 3 Sudeste 10 Noroeste 0 -- -- 78
2017-11-13 18:00:00 9.6 7 Noroeste 13 Noroeste 0 -- -- 63
2017-11-13 17:00:00 10.5 4 Noroeste 30 Norte 0 -- -- 63
2017-11-13 16:00:00 11.4 16 Noroeste 32 Nordeste 0 -- -- 56
2017-11-13 15:00:00 11.6 15 Norte 33 Norte 0 -- -- 59
2017-11-13 14:00:00 11.3 16 Norte 32 Noroeste 0 -- -- 56
2017-11-13 13:00:00 11.3 7 Norte 17 Norte 0 -- -- 68
2017-11-13 12:00:00 9.8 2 Nordeste 13 Norte 0 -- -- 82
2017-11-13 11:00:00 10.1 5 Nordeste 13 Norte 0 -- -- 79
2017-11-13 10:00:00 8.6 5 Noroeste 19 Noroeste 0.2 -- -- 86
2017-11-13 09:00:00 8.5 3 Oeste 16 Noroeste 0.4 -- -- 91
2017-11-13 08:00:00 8.5 13 Noroeste 22 Noroeste 0.8 -- -- 92
2017-11-13 07:00:00 8.9 12 Noroeste 30 Norte 0.8 -- -- 91
2017-11-13 06:00:00 10 12 Noroeste 27 Norte 0 -- -- 78
2017-11-13 05:00:00 9.8 12 Noroeste 28 Noroeste 0.4 -- -- 88
2017-11-13 04:00:00 10.8 12 Noroeste 23 Noroeste 0 -- -- 79
2017-11-13 03:00:00 11.2 16 Noroeste 28 Noroeste 0 -- -- 77
2017-11-13 02:00:00 11.1 10 Oeste 19 Noroeste 0 -- -- 79
2017-11-13 01:00:00 11.3 8 Oeste 19 Noroeste 0 -- -- 88
2017-11-13 00:00:00 11.5 11 Noroeste 28 Noroeste 0.2 -- -- 91
2017-11-12 23:00:00 12.5 19 Noroeste 36 Noroeste 1.6 -- -- 93
2017-11-12 22:00:00 13.2 14 Noroeste 28 Noroeste 1 -- -- 97
2017-11-12 21:00:00 13.3 16 Noroeste 29 Oeste 1 -- -- 96
2017-11-12 20:00:00 13.5 13 Noroeste 31 Oeste 0.2 -- -- 95
2017-11-12 19:00:00 13.7 15 Oeste 37 Oeste 0.8 -- -- 94
2017-11-12 18:00:00 13.6 19 Oeste 31 Noroeste 0.2 -- -- 95
2017-11-12 17:00:00 13 9 Noroeste 28 Oeste 1 -- -- 98
2017-11-12 16:00:00 14.6 5 Noroeste 19 Noroeste 0 -- -- 87
2017-11-12 15:00:00 14.5 4 Sudoeste 10 Oeste 0 -- -- 85
2017-11-12 14:00:00 14.5 4 Noroeste 18 Noroeste 0 -- -- 86
2017-11-12 13:00:00 14.4 4 Oeste 17 Noroeste 0 -- -- 85
2017-11-12 12:00:00 14 6 Noroeste 11 Noroeste 0 -- -- 87
2017-11-12 11:00:00 12.2 5 Este 10 Este 0 -- -- 99
2017-11-12 10:00:00 11.2 3 Este 7 Sudeste 0 -- -- 100
2017-11-12 09:00:00 10.8 3 Sur 10 Este 0 -- -- 100
2017-11-12 08:00:00 10.6 0 Calma 6 Este 0 -- -- 100
2017-11-12 07:00:00 10.5 4 Sudeste 6 Sur 0 -- -- 100
2017-11-12 06:00:00 10.4 0 Calma 5 Este 0 -- -- 100
2017-11-12 05:00:00 10.6 0 Calma 5 Sudeste 0 -- -- 100
2017-11-12 04:00:00 10.7 4 Este 9 Sudeste 0 -- -- 100
2017-11-12 03:00:00 10.8 3 Este 6 Noroeste 0 -- -- 100
2017-11-12 02:00:00 10.9 2 Sudeste 5 Noroeste 0 -- -- 100
2017-11-12 01:00:00 11 2 Norte 5 Norte 0 -- -- 100
2017-11-12 00:00:00 11.2 2 Este 4 Sur 0 -- -- 100
2017-11-11 23:00:00 11.2 3 Sudeste 4 Sudeste 0 -- -- 99
2017-11-11 22:00:00 11.3 0 Calma 3 Sur 0 -- -- 99
2017-11-11 21:00:00 11.5 3 Este 5 Sudeste 0 -- -- 98
2017-11-11 20:00:00 11.8 3 Sudeste 6 Nordeste 0 -- -- 98
2017-11-11 19:00:00 12.3 0 Calma 4 Este 0 -- -- 97
2017-11-11 18:00:00 12.9 2 Sur 4 Sudeste 0 -- -- 96
2017-11-11 17:00:00 13.4 0 Calma 4 Este 0 -- -- 93
2017-11-11 16:00:00 13.2 0 Calma 9 Norte 0 -- -- 91
2017-11-11 15:00:00 12.9 5 Norte 10 Norte 0 -- -- 94
2017-11-11 14:00:00 12.8 8 Noroeste 27 Noroeste 0 -- -- 95
2017-11-11 13:00:00 12.9 5 Norte 13 Norte 0 -- -- 95
2017-11-11 12:00:00 13.1 6 Noroeste 15 Noroeste 0 -- -- 94
2017-11-11 11:00:00 12.5 8 Norte 14 Norte 0 -- -- 99
2017-11-11 10:00:00 11.7 8 Noroeste 16 Noroeste 0 -- -- 100
2017-11-11 09:00:00 11.3 5 Norte 12 Noroeste 0.4 -- -- 100
2017-11-11 08:00:00 11.3 7 Noroeste 12 Noroeste 0 -- -- 100
2017-11-11 07:00:00 11.3 6 Norte 15 Norte 0.2 -- -- 100
2017-11-11 06:00:00 11.3 6 Noroeste 12 Noroeste 0 -- -- 100
2017-11-11 05:00:00 11.4 9 Noroeste 15 Noroeste 0.2 -- -- 99
2017-11-11 04:00:00 11.6 8 Noroeste 23 Oeste 0.2 -- -- 98
2017-11-11 03:00:00 11.5 7 Noroeste 18 Oeste 0.2 -- -- 98
2017-11-11 02:00:00 11.7 10 Oeste 16 Oeste 0.4 -- -- 98
2017-11-11 01:00:00 11.6 5 Noroeste 9 Noroeste 0 -- -- 99
2017-11-11 00:00:00 11.5 6 Norte 10 Norte 0 -- -- 98
2017-11-10 23:00:00 11.9 8 Noroeste 17 Noroeste 0 -- -- 98
2017-11-10 22:00:00 12.1 13 Noroeste 23 Oeste 0.8 -- -- 98
2017-11-10 21:00:00 12.2 9 Noroeste 24 Oeste 0.4 -- -- 98
2017-11-10 20:00:00 12.3 8 Noroeste 18 Noroeste 0 -- -- 98
2017-11-10 19:00:00 12.6 12 Noroeste 24 Oeste 0.4 -- -- 97
2017-11-10 18:00:00 12.6 12 Noroeste 22 Oeste 0.8 -- -- 98
2017-11-10 17:00:00 12.6 11 Noroeste 19 Oeste 0.4 -- -- 97
2017-11-10 16:00:00 12.8 12 Oeste 31 Noroeste 1 -- -- 97
2017-11-10 15:00:00 13.2 10 Noroeste 22 Noroeste 1.4 -- -- 99
2017-11-10 14:00:00 13.3 14 Noroeste 25 Noroeste 0.6 -- -- 98
2017-11-10 13:00:00 12.8 7 Oeste 14 Oeste 0.4 -- -- 100
2017-11-10 12:00:00 11.4 2 Oeste 6 Nordeste 0.6 -- -- 100
2017-11-10 11:00:00 9.7 2 Sudeste 6 Norte 0 -- -- 100
2017-11-10 10:00:00 8.8 0 Calma 3 Sudoeste 1 -- -- 100
2017-11-10 09:00:00 8.3 0 Calma 3 Sur 0 -- -- 100
2017-11-10 08:00:00 7.9 0 Calma 4 Sudeste 0 -- -- 100
2017-11-10 07:00:00 7.8 0 Calma 4 Sudeste 0 -- -- 100
2017-11-10 06:00:00 7.5 0 Calma 7 Este 0.2 -- -- 100
2017-11-10 05:00:00 7.3 2 Sudeste 7 Sudeste 0.4 -- -- 100
2017-11-10 04:00:00 7.1 3 Sudeste 8 Este 0.6 -- -- 99
2017-11-10 03:00:00 7 2 Este 4 Sudeste 0 -- -- 98
2017-11-10 02:00:00 6.9 4 Este 5 Este 0 -- -- 98
2017-11-10 01:00:00 6.7 2 Sudeste 4 Sudeste 0 -- -- 98
2017-11-10 00:00:00 6.5 0 Calma 6 Este 0 -- -- 98
2017-11-09 23:00:00 6.2 3 Sudeste 6 Sudeste 0 -- -- 99
2017-11-09 22:00:00 5.9 3 Sudeste 4 Sudeste 0 -- -- 98
2017-11-09 21:00:00 6.2 0 Calma 3 Este 0 -- -- 96
2017-11-09 20:00:00 6.3 0 Calma 4 Noroeste 0 -- -- 95
2017-11-09 19:00:00 7.6 3 Noroeste 6 Noroeste 0 -- -- 89
2017-11-09 18:00:00 9.5 3 Oeste 14 Oeste 0.2 -- -- 77
2017-11-09 17:00:00 11.7 11 Noroeste 26 Noroeste 0 -- -- 67
2017-11-09 16:00:00 11.8 14 Noroeste 24 Noroeste 0 -- -- 68
2017-11-09 15:00:00 11.4 3 Norte 18 Noroeste 0 -- -- 81
2017-11-09 14:00:00 11.5 11 Noroeste 34 Noroeste 0 -- -- 70
2017-11-09 13:00:00 12.7 15 Noroeste 24 Oeste 0 -- -- 65
2017-11-09 12:00:00 11.2 16 Oeste 24 Oeste 0 -- -- 80
2017-11-09 11:00:00 9.4 7 Noroeste 14 Noroeste 0 -- -- 99
2017-11-09 10:00:00 7.6 3 Norte 12 Noroeste 0.2 -- -- 100
2017-11-09 09:00:00 6.9 2 Oeste 10 Noroeste 0.4 -- -- 100
2017-11-09 08:00:00 6.6 0 Calma 12 Norte 1.2 -- -- 100
2017-11-09 07:00:00 6.6 8 Noroeste 19 Norte 0.2 -- -- 100
2017-11-09 06:00:00 6 3 Noroeste 19 Norte 0 -- -- 100
2017-11-09 05:00:00 5.9 2 Noroeste 12 Este 0 -- -- 100
2017-11-09 04:00:00 5.9 6 Este 12 Este 1.2 -- -- 100
2017-11-09 03:00:00 5.7 5 Este 10 Nordeste 1.8 -- -- 100
2017-11-09 02:00:00 5.4 0 Calma 9 Este 0 -- -- 100
2017-11-09 01:00:00 5.7 0 Calma 12 Norte 0 -- -- 100
2017-11-09 00:00:00 5.9 10 Noroeste 19 Oeste 1.6 -- -- 100
2017-11-08 23:00:00 5.8 4 Nordeste 9 Este 0.2 -- -- 100
2017-11-08 22:00:00 5.9 3 Norte 8 Norte 0 -- -- 100
2017-11-08 21:00:00 5.9 3 Nordeste 8 Este 0.8 -- -- 99
2017-11-08 20:00:00 6.2 3 Sudeste 8 Este 0 -- -- 99
2017-11-08 19:00:00 6.6 0 Calma 4 Sudeste 0 -- -- 98
2017-11-08 18:00:00 7.3 0 Calma 9 Sur 1 -- -- 97
2017-11-08 17:00:00 7.6 6 Este 11 Este 2.6 -- -- 97
2017-11-08 16:00:00 8.2 2 Este 13 Norte 1 -- -- 94
2017-11-08 15:00:00 8.2 2 Sudeste 21 Oeste 1.6 -- -- 98
2017-11-08 14:00:00 7.4 16 Noroeste 32 Oeste 4.8 -- -- 96
2017-11-08 13:00:00 8.2 3 Nordeste 8 Sur 1 -- -- 97
2017-11-08 12:00:00 8.1 3 Sur 16 Norte 4.4 -- -- 97
2017-11-08 11:00:00 8.5 9 Norte 15 Norte 1.6 -- -- 95
2017-11-08 10:00:00 8.4 6 Oeste 26 Oeste 2.4 -- -- 96
2017-11-08 09:00:00 8.1 4 Oeste 27 Noroeste 1.2 -- -- 96
2017-11-08 08:00:00 7.9 9 Noroeste 18 Oeste 2.2 -- -- 96
2017-11-08 07:00:00 7.8 2 Sudoeste 34 Oeste 1.2 -- -- 96
2017-11-08 06:00:00 8.2 4 Oeste 16 Noroeste 0.4 -- -- 97
2017-11-08 05:00:00 8.7 16 Noroeste 30 Oeste 0.6 -- -- 96
2017-11-08 04:00:00 9 9 Noroeste 19 Norte 3.2 -- -- 98
2017-11-08 03:00:00 8.8 6 Oeste 19 Noroeste 3 -- -- 99
2017-11-08 02:00:00 9.2 9 Noroeste 15 Noroeste 2 -- -- 98
2017-11-08 01:00:00 8.7 3 Norte 9 Norte 0.4 -- -- 99
2017-11-08 00:00:00 8.8 0 Calma 6 Sudoeste 0.6 -- -- 98
2017-11-07 23:00:00 8.1 3 Sudeste 12 Este 4.2 -- -- 97
2017-11-07 22:00:00 8.5 3 Este 11 Este 1.4 -- -- 90
2017-11-07 21:00:00 9.4 4 Sudeste 15 Este 0 -- -- 79
2017-11-07 20:00:00 9.3 7 Este 10 Este 0 -- -- 84
2017-11-07 19:00:00 9.8 0 Calma 5 Este 0 -- -- 78
2017-11-07 18:00:00 10.7 0 Calma 9 Sudoeste 0 -- -- 69
2017-11-07 17:00:00 11.8 3 Norte 22 Norte 0 -- -- 54
2017-11-07 16:00:00 13.9 10 Norte 15 Norte 0 -- -- 43
2017-11-07 15:00:00 14.8 5 Sur 11 Sudoeste 0 -- -- 46
2017-11-07 14:00:00 14.2 5 Sur 13 Sur 0 -- -- 40
2017-11-07 13:00:00 12.9 8 Sur 18 Este 0 -- -- 52
2017-11-07 12:00:00 10.4 7 Este 16 Sudeste 0 -- -- 65
2017-11-07 11:00:00 6.9 8 Este 15 Sudeste 0 -- -- 86
2017-11-07 10:00:00 4.7 6 Sudeste 14 Sudeste 0 -- -- 100
2017-11-07 09:00:00 3 5 Sudeste 10 Sudeste 0 -- -- 100
2017-11-07 08:00:00 2.7 3 Sudeste 11 Sudeste 0 -- -- 100
2017-11-07 07:00:00 3.1 4 Sudeste 12 Sudeste 0 -- -- 99
2017-11-07 06:00:00 3.9 4 Sudeste 10 Sudeste 0 -- -- 100
2017-11-07 05:00:00 4.4 4 Sudeste 9 Este 0 -- -- 99
2017-11-07 04:00:00 5 0 Calma 6 Sudeste 0 -- -- 98
2017-11-07 03:00:00 5.9 0 Calma 6 Este 0 -- -- 98
2017-11-07 02:00:00 7.6 4 Este 10 Este 0 -- -- 99
2017-11-07 01:00:00 8.4 4 Este 6 Sudeste 0 -- -- 99
2017-11-07 00:00:00 8.8 0 Calma 6 Norte 0.4 -- -- 99
2017-11-06 23:00:00 8.6 0 Calma 2 Sur 0.2 -- -- 99
2017-11-06 22:00:00 8.5 0 Calma 4 Nordeste 0 -- -- 97
2017-11-06 21:00:00 9 0 Calma 7 Sur 0 -- -- 97
2017-11-06 20:00:00 9.2 4 Sur 7 Sur 0.2 -- -- 95
2017-11-06 19:00:00 9.8 5 Nordeste 13 Norte 0 -- -- 86
2017-11-06 18:00:00 10.7 3 Noroeste 21 Norte 0 -- -- 83
2017-11-06 17:00:00 12 17 Norte 28 Norte 0 -- -- 82
2017-11-06 16:00:00 13.3 12 Noroeste 20 Noroeste 0 -- -- 75
2017-11-06 15:00:00 11.7 13 Oeste 35 Oeste 0.2 -- -- 80
2017-11-06 14:00:00 12.2 12 Oeste 23 Oeste 0.2 -- -- 86
2017-11-06 13:00:00 10.4 10 Oeste 22 Noroeste 0.8 -- -- 92
2017-11-06 12:00:00 10.9 3 Noroeste 10 Noroeste 0.6 -- -- 94
2017-11-06 11:00:00 9.9 4 Oeste 8 Nordeste 1 -- -- 98
2017-11-06 10:00:00 9.4 4 Noroeste 12 Noroeste 0.4 -- -- 99
2017-11-06 09:00:00 8.4 7 Noroeste 12 Noroeste 0 -- -- 100
2017-11-06 08:00:00 7.8 2 Norte 8 Norte 0.2 -- -- 99
2017-11-06 07:00:00 7.7 2 Noroeste 8 Sur 0.4 -- -- 99
2017-11-06 06:00:00 8.1 3 Oeste 15 Noroeste 1.8 -- -- 99
2017-11-06 05:00:00 7.9 4 Norte 9 Este 0.6 -- -- 98
2017-11-06 04:00:00 8.4 4 Sur 7 Sudeste 0 -- -- 95
2017-11-06 03:00:00 9.4 4 Noroeste 27 Norte 0.2 -- -- 89
2017-11-06 02:00:00 9.4 5 Sur 10 Norte 0.4 -- -- 98
2017-11-06 01:00:00 9.4 2 Nordeste 12 Oeste 0.2 -- -- 98
2017-11-06 00:00:00 9.7 5 Noroeste 13 Oeste 0.8 -- -- 97
2017-11-05 23:00:00 9.9 7 Oeste 17 Noroeste 1 -- -- 96
2017-11-05 22:00:00 10 12 Oeste 20 Noroeste 2.4 -- -- 97
2017-11-05 21:00:00 9.9 8 Noroeste 22 Oeste 1 -- -- 97
2017-11-05 20:00:00 10.2 8 Oeste 29 Oeste 1.6 -- -- 96
2017-11-05 19:00:00 10.1 11 Oeste 18 Oeste 0.2 -- -- 94
2017-11-05 18:00:00 10.1 5 Noroeste 24 Oeste 1.4 -- -- 95
2017-11-05 17:00:00 10.7 12 Oeste 26 Oeste 0.6 -- -- 90
2017-11-05 16:00:00 10.7 12 Oeste 30 Noroeste 1.2 -- -- 94
2017-11-05 15:00:00 11.1 12 Noroeste 46 Oeste 0.8 -- -- 90
2017-11-05 14:00:00 11.4 9 Noroeste 37 Noroeste 1.2 -- -- 96
2017-11-05 13:00:00 10.8 12 Oeste 29 Oeste 2 -- -- 92
2017-11-05 12:00:00 11.6 7 Oeste 28 Oeste 1.2 -- -- 96
2017-11-05 11:00:00 11.6 15 Oeste 26 Oeste 0.4 -- -- 87
2017-11-05 10:00:00 10.4 7 Noroeste 13 Noroeste 0 -- -- 99
2017-11-05 09:00:00 9.4 4 Norte 12 Noroeste 1.2 -- -- 99
2017-11-05 08:00:00 9.1 3 Oeste 10 Oeste 0.2 -- -- 98
2017-11-05 07:00:00 9.6 5 Oeste 13 Oeste 0.4 -- -- 96
2017-11-05 06:00:00 10.1 12 Noroeste 23 Noroeste 0.4 -- -- 97
2017-11-05 05:00:00 10.8 7 Noroeste 26 Oeste 0.6 -- -- 97
2017-11-05 04:00:00 11.4 13 Oeste 26 Oeste 0.2 -- -- 94
2017-11-05 03:00:00 11.8 8 Oeste 21 Oeste 0.6 -- -- 95
2017-11-05 02:00:00 12.5 11 Oeste 21 Noroeste 0 -- -- 96
2017-11-05 01:00:00 12.7 12 Noroeste 31 Noroeste 2.2 -- -- 97
2017-11-05 00:00:00 12.9 8 Oeste 23 Oeste 0.8 -- -- 98
2017-11-04 23:00:00 12.8 10 Oeste 21 Oeste 2 -- -- 98
2017-11-04 22:00:00 12.6 9 Noroeste 15 Noroeste 0 -- -- 99
2017-11-04 21:00:00 12.8 4 Norte 12 Norte 0.8 -- -- 98
2017-11-04 20:00:00 13.1 8 Oeste 16 Oeste 1.2 -- -- 96
2017-11-04 19:00:00 13.2 5 Noroeste 21 Oeste 4.8 -- -- 97
2017-11-04 18:00:00 13.3 9 Noroeste 19 Oeste 3 -- -- 97
2017-11-04 17:00:00 13.8 8 Noroeste 14 Oeste 2.4 -- -- 97
2017-11-04 16:00:00 14 7 Noroeste 27 Noroeste 3.2 -- -- 95
2017-11-04 15:00:00 16.1 6 Noroeste 22 Oeste 0 -- -- 84
2017-11-04 14:00:00 15.6 3 Sur 4 Sur 0 -- -- 81
2017-11-04 13:00:00 14.4 2 Sur 4 Sur 0 -- -- 87
2017-11-04 12:00:00 12.9 0 Calma 4 Sudeste 0 -- -- 91
2017-11-04 11:00:00 11.4 3 Este 5 Este 0 -- -- 93
2017-11-04 10:00:00 10 2 Oeste 7 Norte 0 -- -- 99
2017-11-04 09:00:00 8.3 2 Norte 4 Este 0 -- -- 99
2017-11-04 08:00:00 7.7 3 Sudeste 8 Este 0 -- -- 98
2017-11-04 07:00:00 8 3 Sur 4 Sudeste 0 -- -- 99
2017-11-04 06:00:00 8 2 Este 8 Sudeste 0 -- -- 98
2017-11-04 05:00:00 8.3 6 Sudeste 9 Sudeste 0 -- -- 99
2017-11-04 04:00:00 8.2 0 Calma 7 Este 0 -- -- 97
2017-11-04 03:00:00 8.4 2 Este 6 Este 0 -- -- 97
2017-11-04 02:00:00 8.9 0 Calma 4 Sudeste 0 -- -- 96
2017-11-04 01:00:00 9.2 3 Sudeste 8 Este 0 -- -- 94
2017-11-04 00:00:00 9.8 3 Sudeste 5 Este 0 -- -- 94
2017-11-03 23:00:00 10.3 3 Este 6 Este 0 -- -- 91
2017-11-03 22:00:00 11.1 0 Calma 13 Este 0 -- -- 87
2017-11-03 21:00:00 11.7 0 Calma 9 Sudeste 0 -- -- 86
2017-11-03 20:00:00 13 4 Sudeste 8 Este 0 -- -- 82
2017-11-03 19:00:00 14.3 3 Sudeste 8 Este 0 -- -- 79
2017-11-03 18:00:00 16.7 4 Sudeste 8 Sudeste 0 -- -- 69
2017-11-03 17:00:00 21.8 8 Sudoeste 19 Sur 0 -- -- 45
2017-11-03 16:00:00 22.5 12 Sudoeste 22 Sudoeste 0 -- -- 46
2017-11-03 15:00:00 22 8 Sudoeste 37 Sudoeste 0 -- -- 47
2017-11-03 14:00:00 22.2 9 Sudoeste 37 Sudoeste 0 -- -- 49
2017-11-03 13:00:00 21.6 10 Sur 36 Sudoeste 0 -- -- 50
2017-11-03 12:00:00 20.9 12 Sudeste 27 Este 0 -- -- 57
2017-11-03 11:00:00 19.2 13 Sudeste 31 Sur 0 -- -- 64
2017-11-03 10:00:00 16.5 13 Sudeste 26 Sudeste 0 -- -- 76
2017-11-03 09:00:00 14.5 3 Oeste 7 Noroeste 0.2 -- -- 93
2017-11-03 08:00:00 15.1 3 Sur 9 Este 0 -- -- 84
2017-11-03 07:00:00 15 0 Calma 18 Nordeste 0 -- -- 85
2017-11-03 06:00:00 15.8 5 Este 24 Sudeste 0 -- -- 77
2017-11-03 05:00:00 17.2 10 Sudeste 22 Este 0 -- -- 72
2017-11-03 04:00:00 16 8 Sudeste 21 Este 0 -- -- 74
2017-11-03 03:00:00 16.1 12 Este 21 Este 0 -- -- 72
2017-11-03 02:00:00 15.1 5 Sur 25 Este 0 -- -- 77
2017-11-03 01:00:00 17.7 10 Este 24 Este 0 -- -- 66
2017-11-03 00:00:00 16.8 6 Sudeste 23 Sudeste 0 -- -- 71
2017-11-02 23:00:00 17.3 8 Sudeste 21 Este 0 -- -- 69
2017-11-02 22:00:00 17.9 5 Sudeste 33 Este 0 -- -- 68
2017-11-02 21:00:00 17.9 5 Sudeste 21 Este 0 -- -- 67
2017-11-02 20:00:00 17.8 7 Este 21 Este 0 -- -- 68
2017-11-02 19:00:00 18.2 5 Sudeste 18 Este 0 -- -- 68
2017-11-02 18:00:00 19.5 9 Este 15 Sudeste 0 -- -- 62
2017-11-02 17:00:00 20 7 Este 21 Este 0 -- -- 61
2017-11-02 16:00:00 20.3 6 Sudeste 23 Este 0 -- -- 63
2017-11-02 15:00:00 21.7 9 Este 22 Sudeste 0 -- -- 56
2017-11-02 14:00:00 23.7 9 Sudeste 24 Este 0 -- -- 52
2017-11-02 13:00:00 22.1 12 Este 26 Este 0 -- -- 55
2017-11-02 12:00:00 20.9 18 Este 35 Este 0 -- -- 59
2017-11-02 11:00:00 18.4 8 Sudeste 33 Este 0 -- -- 66
2017-11-02 10:00:00 17.8 11 Sudeste 25 Sudeste 0 -- -- 68
2017-11-02 09:00:00 16.8 7 Sudeste 28 Este 0 -- -- 72
2017-11-02 08:00:00 16.3 12 Sudeste 39 Este 0 -- -- 73
2017-11-02 07:00:00 16.7 18 Este 37 Este 0 -- -- 72
2017-11-02 06:00:00 16.8 16 Este 37 Este 0 -- -- 71
2017-11-02 05:00:00 16.9 14 Este 30 Sudeste 0 -- -- 71
2017-11-02 04:00:00 17.1 12 Sudeste 31 Sudeste 0 -- -- 69
2017-11-02 03:00:00 17.6 10 Sudeste 30 Sudeste 0 -- -- 67
2017-11-02 02:00:00 16.5 5 Sudeste 28 Este 0 -- -- 71
2017-11-02 01:00:00 17.2 11 Este 26 Este 0 -- -- 67
2017-11-02 00:00:00 16.6 14 Este 26 Este 0 -- -- 70
2017-11-01 23:00:00 15.3 8 Sudeste 18 Este 0 -- -- 75
2017-11-01 22:00:00 14.4 5 Sudeste 15 Este 0 -- -- 79
2017-11-01 21:00:00 13.9 3 Sudeste 10 Este 0 -- -- 83
2017-11-01 20:00:00 14.7 3 Sur 13 Este 0 -- -- 80
2017-11-01 19:00:00 15.5 3 Sudoeste 9 Sudeste 0 -- -- 76
2017-11-01 18:00:00 16.8 4 Sur 8 Sudoeste 0 -- -- 75
2017-11-01 17:00:00 20.5 5 Sur 21 Este 0 -- -- 67
2017-11-01 16:00:00 20.1 11 Este 21 Este 0 -- -- 59
2017-11-01 15:00:00 21 9 Este 19 Este 0 -- -- 53
2017-11-01 14:00:00 20.8 7 Este 21 Este 0 -- -- 54
2017-11-01 13:00:00 20.4 10 Este 27 Este 0 -- -- 57
2017-11-01 12:00:00 19.2 8 Sudeste 28 Este 0 -- -- 61
2017-11-01 11:00:00 17.6 12 Sudeste 29 Sudeste 0 -- -- 63
2017-11-01 10:00:00 15.3 10 Sudeste 24 Este 0 -- -- 71
2017-11-01 09:00:00 10.6 2 Sur 6 Sudeste 0 -- -- 90
2017-11-01 08:00:00 9.1 2 Sudoeste 5 Noroeste 0 -- -- 90
2017-11-01 07:00:00 10 2 Oeste 9 Noroeste 0 -- -- 86
2017-11-01 06:00:00 12 4 Sudoeste 12 Oeste 0 -- -- 78
2017-11-01 05:00:00 12.4 4 Oeste 8 Sur 0 -- -- 75
2017-11-01 04:00:00 13.8 6 Sur 24 Este 0 -- -- 68
2017-11-01 03:00:00 15.7 16 Este 40 Este 0 -- -- 59
2017-11-01 02:00:00 15.9 18 Este 41 Este 0 -- -- 59
2017-11-01 01:00:00 15.9 20 Este 39 Este 0 -- -- 59
2017-11-01 00:00:00 14.2 14 Sudeste 36 Este 0 -- -- 67
2017-10-31 23:00:00 9.2 3 Sur 9 Sudeste 0 -- -- 95
2017-10-31 22:00:00 9.8 0 Calma 17 Este 0 -- -- 92
2017-10-31 21:00:00 9.6 6 Sudeste 15 Este 0 -- -- 95
2017-10-31 20:00:00 9.8 2 Este 4 Este 0 -- -- 94
2017-10-31 19:00:00 11.1 0 Calma 5 Este 0 -- -- 90
2017-10-31 18:00:00 13.3 0 Calma 17 Norte 0 -- -- 81
2017-10-31 17:00:00 15.4 8 Norte 15 Norte 0 -- -- 71
2017-10-31 16:00:00 17.1 7 Sur 14 Sudeste 0 -- -- 64
2017-10-31 15:00:00 16.9 9 Sur 15 Sudeste 0 -- -- 58
2017-10-31 14:00:00 16.1 6 Sur 13 Sur 0 -- -- 64
2017-10-31 13:00:00 14.8 4 Sur 10 Oeste 0 -- -- 65
2017-10-31 12:00:00 12.7 2 Noroeste 5 Sur 0 -- -- 69
2017-10-31 11:00:00 9.2 0 Calma 5 Oeste 0 -- -- 96
2017-10-31 10:00:00 7.2 3 Este 8 Sudeste 0 -- -- 100
2017-10-31 09:00:00 6.7 4 Sudeste 9 Este 0 -- -- 100
2017-10-31 08:00:00 6.5 5 Este 9 Este 0 -- -- 100
2017-10-31 07:00:00 7.2 4 Sudeste 9 Este 0 -- -- 100
2017-10-31 06:00:00 7.4 3 Sur 8 Sudeste 0 -- -- 100
2017-10-31 05:00:00 7.1 4 Este 8 Este 0 -- -- 99
2017-10-31 04:00:00 7.9 0 Calma 4 Este 0 -- -- 99
2017-10-31 03:00:00 8.2 2 Este 4 Este 0 -- -- 99
2017-10-31 02:00:00 8.2 0 Calma 4 Sudeste 0 -- -- 99
2017-10-31 01:00:00 8 2 Este 6 Sudeste 0 -- -- 99
2017-10-31 00:00:00 8.1 0 Calma 6 Este 0 -- -- 98
2017-10-30 23:00:00 8.5 0 Calma 4 Sudeste 0 -- -- 97
2017-10-30 22:00:00 9.4 0 Calma 4 Noroeste 0 -- -- 95
2017-10-30 21:00:00 10.2 0 Calma 3 Norte 0 -- -- 92
2017-10-30 20:00:00 10.9 0 Calma 5 Sur 0 -- -- 90
2017-10-30 19:00:00 11.5 3 Norte 16 Noroeste 0 -- -- 83
2017-10-30 18:00:00 12.5 9 Noroeste 19 Noroeste 0 -- -- 77
2017-10-30 17:00:00 13.1 9 Noroeste 21 Noroeste 0 -- -- 76
2017-10-30 16:00:00 14 8 Norte 22 Norte 0 -- -- 76
2017-10-30 15:00:00 14.5 8 Norte 19 Nordeste 0 -- -- 80
2017-10-30 14:00:00 14.4 7 Norte 15 Noroeste 0 -- -- 88
2017-10-30 13:00:00 14 5 Noroeste 32 Norte 0.2 -- -- 92
2017-10-30 12:00:00 14.5 13 Norte 26 Noroeste 0 -- -- 95
2017-10-30 11:00:00 14.5 6 Oeste 13 Oeste 0.6 -- -- 98
2017-10-30 10:00:00 13.9 10 Oeste 16 Oeste 1.8 -- -- 98
2017-10-30 09:00:00 13.6 4 Oeste 14 Oeste 0.2 -- -- 99
2017-10-30 08:00:00 13.1 8 Oeste 15 Oeste 0 -- -- 99
2017-10-30 07:00:00 13.1 10 Oeste 16 Oeste 0.2 -- -- 100
2017-10-30 06:00:00 13.1 2 Noroeste 9 Norte 0 -- -- 100
2017-10-30 05:00:00 13 2 Noroeste 9 Oeste 0 -- -- 100
2017-10-30 04:00:00 13 3 Noroeste 13 Oeste 0.4 -- -- 100
2017-10-30 03:00:00 13 5 Noroeste 12 Oeste 0.6 -- -- 100
2017-10-30 02:00:00 12.9 2 Noroeste 6 Norte 0 -- -- 99
2017-10-30 01:00:00 13 0 Calma 12 Noroeste 1.4 -- -- 99
2017-10-30 00:00:00 13.1 0 Calma 9 Norte 0 -- -- 98
2017-10-29 23:00:00 13.2 5 Oeste 17 Oeste 0 -- -- 97
2017-10-29 22:00:00 13.3 7 Noroeste 12 Oeste 0 -- -- 98
2017-10-29 21:00:00 13.2 7 Noroeste 13 Noroeste 0.4 -- -- 99
2017-10-29 20:00:00 13.2 5 Noroeste 10 Noroeste 0 -- -- 98
2017-10-29 19:00:00 13.4 3 Oeste 12 Oeste 0.2 -- -- 97
2017-10-29 18:00:00 13.7 8 Noroeste 18 Oeste 0 -- -- 95
2017-10-29 17:00:00 14.5 10 Oeste 16 Oeste 0 -- -- 88
2017-10-29 16:00:00 14.9 10 Oeste 14 Oeste 0 -- -- 84
2017-10-29 15:00:00 14.8 9 Oeste 18 Oeste 0 -- -- 84
2017-10-29 14:00:00 15.5 8 Oeste 17 Oeste 0 -- -- 82
2017-10-29 13:00:00 14 5 Noroeste 10 Norte 0 -- -- 88
2017-10-29 12:00:00 12 0 Calma 5 Sur 0 -- -- 94
2017-10-29 11:00:00 10.1 3 Este 6 Este 0 -- -- 100
2017-10-29 10:00:00 8.9 2 Sur 5 Este 0 -- -- 100
2017-10-29 09:00:00 8 0 Calma 2 Nordeste 0 -- -- 100
2017-10-29 08:00:00 7.4 0 Calma 4 Este 0 -- -- 100
2017-10-29 07:00:00 7.8 2 Sudeste 5 Sudeste 0 -- -- 100
2017-10-29 06:00:00 7.9 0 Calma 2 Este 0 -- -- 100
2017-10-29 05:00:00 7.9 0 Calma 2 Este 0 -- -- 100
2017-10-29 04:00:00 7.9 0 Calma 3 Nordeste 0 -- -- 100
2017-10-29 03:00:00 7.9 0 Calma 4 Sudeste 0 -- -- 99
2017-10-29 02:00:00 7.8 2 Este 4 Este 0 -- -- 99
2017-10-29 01:00:00 8.8 0 Calma 3 Este 0 -- -- 98
2017-10-29 00:00:00 9.2 0 Calma 4 Este 0 -- -- 97
2017-10-28 23:00:00 9.8 0 Calma 8 Este 0 -- -- 95
2017-10-28 22:00:00 11.1 4 Sudeste 8 Sudeste 0 -- -- 93
2017-10-28 21:00:00 12.6 0 Calma 8 Este 0 -- -- 89
2017-10-28 20:00:00 14.1 2 Sudeste 8 Nordeste 0 -- -- 84
2017-10-28 19:00:00 15.1 5 Nordeste 19 Norte 0 -- -- 73
2017-10-28 18:00:00 16.2 9 Nordeste 23 Norte 0 -- -- 72
2017-10-28 17:00:00 16.7 12 Nordeste 21 Nordeste 0 -- -- 80
2017-10-28 16:00:00 17.4 7 Norte 18 Este 0 -- -- 80
2017-10-28 15:00:00 16.7 6 Nordeste 17 Norte 0 -- -- 82
2017-10-28 14:00:00 16.6 8 Norte 15 Norte 0 -- -- 86
2017-10-28 13:00:00 16.4 6 Norte 12 Norte 0 -- -- 89
2017-10-28 12:00:00 15.6 2 Norte 6 Norte 0 -- -- 94
2017-10-28 11:00:00 14.9 0 Calma 5 Norte 0 -- -- 97
2017-10-28 10:00:00 14.4 3 Norte 9 Norte 0 -- -- 98
2017-10-28 09:00:00 14.1 3 Noroeste 10 Norte 0 -- -- 98
2017-10-28 08:00:00 14.1 2 Norte 5 Norte 0 -- -- 98
2017-10-28 07:00:00 14.2 0 Calma 6 Este 0 -- -- 98
2017-10-28 06:00:00 14.4 0 Calma 3 Sudoeste 0.2 -- -- 98
2017-10-28 05:00:00 14.5 0 Calma 4 Sur 0 -- -- 98
2017-10-28 04:00:00 14.7 0 Calma 7 Oeste 0.4 -- -- 96
2017-10-28 03:00:00 14.9 4 Norte 9 Noroeste 0 -- -- 94
2017-10-28 02:00:00 14.9 3 Oeste 6 Norte 0 -- -- 94
2017-10-28 01:00:00 15.1 3 Nordeste 5 Sur 0 -- -- 95
2017-10-28 00:00:00 15.5 0 Calma 12 Oeste 0 -- -- 93
2017-10-27 23:00:00 15.7 3 Nordeste 11 Noroeste 0 -- -- 92
2017-10-27 22:00:00 15.9 6 Norte 15 Noroeste 0 -- -- 92
2017-10-27 21:00:00 16.6 8 Oeste 13 Noroeste 0 -- -- 92
2017-10-27 20:00:00 16.9 7 Noroeste 15 Noroeste 0 -- -- 88
2017-10-27 19:00:00 17.3 9 Noroeste 16 Noroeste 0 -- -- 87
2017-10-27 18:00:00 17.7 12 Noroeste 21 Noroeste 0 -- -- 84
2017-10-27 17:00:00 18.2 10 Noroeste 23 Noroeste 0 -- -- 83
2017-10-27 16:00:00 18.8 14 Noroeste 20 Noroeste 0 -- -- 79
2017-10-27 15:00:00 18.8 9 Noroeste 15 Oeste 0 -- -- 79
2017-10-27 14:00:00 18.5 9 Noroeste 14 Noroeste 0 -- -- 79
2017-10-27 13:00:00 16.3 3 Norte 7 Noroeste 0 -- -- 86
2017-10-27 12:00:00 13.6 2 Norte 5 Nordeste 0 -- -- 94
2017-10-27 11:00:00 11.6 3 Sudoeste 6 Este 0 -- -- 99
2017-10-27 10:00:00 10.1 2 Este 5 Este 0 -- -- 100
2017-10-27 09:00:00 8.9 3 Sudeste 5 Este 0 -- -- 100
2017-10-27 08:00:00 8.5 0 Calma 3 Este 0 -- -- 99
2017-10-27 07:00:00 8.6 0 Calma 3 Este 0 -- -- 99
2017-10-27 06:00:00 8.8 0 Calma 4 Sur 0 -- -- 99
2017-10-27 05:00:00 9.2 0 Calma 5 Sur 0 -- -- 98
2017-10-27 04:00:00 9.6 3 Sudeste 5 Sudeste 0 -- -- 98
2017-10-27 03:00:00 10.1 0 Calma 6 Sudeste 0 -- -- 98
2017-10-27 02:00:00 10.4 0 Calma 3 Sudeste 0 -- -- 97
2017-10-27 01:00:00 10.9 0 Calma 3 Este 0 -- -- 97
2017-10-27 00:00:00 11.4 0 Calma 3 Este 0 -- -- 95
2017-10-26 23:00:00 12 0 Calma 6 Este 0 -- -- 94
2017-10-26 22:00:00 13 3 Sudeste 9 Sudeste 0 -- -- 92
2017-10-26 21:00:00 14.2 0 Calma 4 Este 0 -- -- 88
2017-10-26 20:00:00 16.2 0 Calma 4 Oeste 0 -- -- 83
2017-10-26 19:00:00 18.9 2 Sudoeste 13 Oeste 0 -- -- 72
2017-10-26 18:00:00 21.6 11 Oeste 16 Oeste 0 -- -- 62
2017-10-26 17:00:00 22.7 11 Oeste 19 Noroeste 0 -- -- 59
2017-10-26 16:00:00 23.4 13 Noroeste 26 Noroeste 0 -- -- 53
2017-10-26 15:00:00 22.9 17 Oeste 26 Oeste 0 -- -- 60
2017-10-26 14:00:00 22.1 14 Noroeste 25 Noroeste 0 -- -- 61
2017-10-26 13:00:00 21.7 13 Noroeste 18 Noroeste 0 -- -- 64
2017-10-26 12:00:00 19.8 6 Noroeste 14 Noroeste 0 -- -- 63
2017-10-26 11:00:00 15.4 0 Calma 7 Norte 0 -- -- 82
2017-10-26 10:00:00 12.2 2 Noroeste 13 Norte 0 -- -- 88
2017-10-26 09:00:00 10.8 4 Noroeste 11 Sudeste 0 -- -- 92
2017-10-26 08:00:00 11.2 2 Oeste 13 Noroeste 0 -- -- 90
2017-10-26 07:00:00 11.1 4 Noroeste 10 Sudoeste 0 -- -- 91
2017-10-26 06:00:00 11 4 Noroeste 12 Sudeste 0 -- -- 94
2017-10-26 05:00:00 10.8 2 Sur 6 Sudeste 0 -- -- 95
2017-10-26 04:00:00 11.1 2 Oeste 9 Noroeste 0 -- -- 97
2017-10-26 03:00:00 11.1 2 Norte 10 Noroeste 0 -- -- 96
2017-10-26 02:00:00 11.4 3 Norte 9 Noroeste 0 -- -- 97
2017-10-26 01:00:00 11.8 0 Calma 4 Sur 0 -- -- 97
2017-10-26 00:00:00 12.1 0 Calma 4 Sudeste 0 -- -- 95